sensor_id;sensor_type;location;lat;lon;timestamp;P1;durP1;ratioP1;P2;durP2;ratioP2
16115;SDS011;8162;47.104;15.432;2022-12-18T00:02:24;14.77;;;9.80;;
16115;SDS011;8162;47.104;15.432;2022-12-18T00:04:50;13.63;;;8.50;;
16115;SDS011;8162;47.104;15.432;2022-12-18T00:07:15;14.83;;;9.40;;
16115;SDS011;8162;47.104;15.432;2022-12-18T00:09:41;13.90;;;9.00;;
16115;SDS011;8162;47.104;15.432;2022-12-18T00:12:06;10.53;;;7.60;;
16115;SDS011;8162;47.104;15.432;2022-12-18T00:14:32;14.40;;;9.07;;
16115;SDS011;8162;47.104;15.432;2022-12-18T00:16:58;11.40;;;7.93;;
16115;SDS011;8162;47.104;15.432;2022-12-18T00:19:25;10.53;;;6.97;;
16115;SDS011;8162;47.104;15.432;2022-12-18T00:21:51;13.13;;;7.83;;
16115;SDS011;8162;47.104;15.432;2022-12-18T00:24:16;12.60;;;6.90;;
16115;SDS011;8162;47.104;15.432;2022-12-18T00:26:42;9.10;;;6.80;;
16115;SDS011;8162;47.104;15.432;2022-12-18T00:29:11;9.63;;;6.90;;
16115;SDS011;8162;47.104;15.432;2022-12-18T00:31:41;9.63;;;6.70;;
16115;SDS011;8162;47.104;15.432;2022-12-18T00:34:09;11.80;;;7.43;;
16115;SDS011;8162;47.104;15.432;2022-12-18T00:36:36;12.37;;;7.07;;
16115;SDS011;8162;47.104;15.432;2022-12-18T00:39:03;10.93;;;6.07;;
16115;SDS011;8162;47.104;15.432;2022-12-18T00:41:30;12.17;;;6.73;;
16115;SDS011;8162;47.104;15.432;2022-12-18T00:44:15;11.77;;;7.67;;
16115;SDS011;8162;47.104;15.432;2022-12-18T00:46:43;12.23;;;7.77;;
16115;SDS011;8162;47.104;15.432;2022-12-18T00:49:10;11.33;;;7.30;;
16115;SDS011;8162;47.104;15.432;2022-12-18T00:51:37;9.13;;;6.73;;
16115;SDS011;8162;47.104;15.432;2022-12-18T00:54:02;9.70;;;7.13;;
16115;SDS011;8162;47.104;15.432;2022-12-18T00:56:28;10.83;;;7.03;;
16115;SDS011;8162;47.104;15.432;2022-12-18T00:58:54;8.07;;;6.33;;
16115;SDS011;8162;47.104;15.432;2022-12-18T01:01:20;10.73;;;7.83;;
16115;SDS011;8162;47.104;15.432;2022-12-18T01:03:45;10.13;;;7.00;;
16115;SDS011;8162;47.104;15.432;2022-12-18T01:06:12;8.80;;;6.30;;
16115;SDS011;8162;47.104;15.432;2022-12-18T01:08:38;9.13;;;6.40;;
16115;SDS011;8162;47.104;15.432;2022-12-18T01:11:08;8.40;;;6.40;;
16115;SDS011;8162;47.104;15.432;2022-12-18T01:13:36;11.00;;;6.67;;
16115;SDS011;8162;47.104;15.432;2022-12-18T01:16:03;11.67;;;7.30;;
16115;SDS011;8162;47.104;15.432;2022-12-18T01:18:29;12.67;;;6.67;;
16115;SDS011;8162;47.104;15.432;2022-12-18T01:20:54;8.13;;;5.77;;
16115;SDS011;8162;47.104;15.432;2022-12-18T01:23:20;9.37;;;6.20;;
16115;SDS011;8162;47.104;15.432;2022-12-18T01:25:46;7.83;;;5.73;;
16115;SDS011;8162;47.104;15.432;2022-12-18T01:28:11;10.67;;;6.50;;
16115;SDS011;8162;47.104;15.432;2022-12-18T01:30:37;10.20;;;6.13;;
16115;SDS011;8162;47.104;15.432;2022-12-18T01:33:06;9.70;;;6.17;;
16115;SDS011;8162;47.104;15.432;2022-12-18T01:35:32;8.97;;;6.37;;
16115;SDS011;8162;47.104;15.432;2022-12-18T01:37:57;9.23;;;5.90;;
16115;SDS011;8162;47.104;15.432;2022-12-18T01:40:23;7.60;;;5.30;;
16115;SDS011;8162;47.104;15.432;2022-12-18T01:42:50;8.57;;;5.60;;
16115;SDS011;8162;47.104;15.432;2022-12-18T01:47:56;8.40;;;5.90;;
16115;SDS011;8162;47.104;15.432;2022-12-18T01:53:09;7.33;;;5.30;;
16115;SDS011;8162;47.104;15.432;2022-12-18T01:55:48;9.67;;;5.93;;
16115;SDS011;8162;47.104;15.432;2022-12-18T01:58:30;6.97;;;5.20;;
16115;SDS011;8162;47.104;15.432;2022-12-18T02:01:11;7.30;;;5.63;;
16115;SDS011;8162;47.104;15.432;2022-12-18T02:03:40;11.77;;;6.37;;
16115;SDS011;8162;47.104;15.432;2022-12-18T02:06:19;8.70;;;5.73;;
16115;SDS011;8162;47.104;15.432;2022-12-18T02:09:11;7.63;;;6.23;;
16115;SDS011;8162;47.104;15.432;2022-12-18T02:14:56;8.70;;;5.67;;
16115;SDS011;8162;47.104;15.432;2022-12-18T02:17:45;9.17;;;5.63;;
16115;SDS011;8162;47.104;15.432;2022-12-18T02:20:25;7.23;;;5.63;;
16115;SDS011;8162;47.104;15.432;2022-12-18T02:23:01;7.60;;;5.17;;
16115;SDS011;8162;47.104;15.432;2022-12-18T02:29:00;8.67;;;5.30;;
16115;SDS011;8162;47.104;15.432;2022-12-18T02:31:57;9.17;;;5.63;;
16115;SDS011;8162;47.104;15.432;2022-12-18T02:34:25;7.57;;;5.77;;
16115;SDS011;8162;47.104;15.432;2022-12-18T02:36:55;10.83;;;5.97;;
16115;SDS011;8162;47.104;15.432;2022-12-18T02:39:23;8.40;;;6.03;;
16115;SDS011;8162;47.104;15.432;2022-12-18T02:41:51;11.03;;;5.90;;
16115;SDS011;8162;47.104;15.432;2022-12-18T02:44:17;9.10;;;6.13;;
16115;SDS011;8162;47.104;15.432;2022-12-18T02:46:44;8.07;;;5.37;;
16115;SDS011;8162;47.104;15.432;2022-12-18T02:54:24;8.10;;;5.30;;
16115;SDS011;8162;47.104;15.432;2022-12-18T02:57:16;7.37;;;4.57;;
16115;SDS011;8162;47.104;15.432;2022-12-18T02:59:53;7.43;;;4.47;;
16115;SDS011;8162;47.104;15.432;2022-12-18T03:02:44;6.40;;;4.17;;
16115;SDS011;8162;47.104;15.432;2022-12-18T03:05:17;6.53;;;5.37;;
16115;SDS011;8162;47.104;15.432;2022-12-18T03:07:56;6.27;;;4.80;;
16115;SDS011;8162;47.104;15.432;2022-12-18T03:10:32;7.07;;;4.90;;
16115;SDS011;8162;47.104;15.432;2022-12-18T03:13:03;5.63;;;5.07;;
16115;SDS011;8162;47.104;15.432;2022-12-18T03:15:38;8.17;;;5.10;;
16115;SDS011;8162;47.104;15.432;2022-12-18T03:18:12;8.87;;;5.53;;
16115;SDS011;8162;47.104;15.432;2022-12-18T03:20:45;8.83;;;6.07;;
16115;SDS011;8162;47.104;15.432;2022-12-18T03:23:14;8.77;;;5.53;;
16115;SDS011;8162;47.104;15.432;2022-12-18T03:25:45;10.77;;;5.63;;
16115;SDS011;8162;47.104;15.432;2022-12-18T03:28:13;9.53;;;5.60;;
16115;SDS011;8162;47.104;15.432;2022-12-18T03:30:44;5.73;;;4.37;;
16115;SDS011;8162;47.104;15.432;2022-12-18T03:35:50;8.33;;;5.10;;
16115;SDS011;8162;47.104;15.432;2022-12-18T03:38:16;7.70;;;4.80;;
16115;SDS011;8162;47.104;15.432;2022-12-18T03:43:18;6.90;;;4.53;;
16115;SDS011;8162;47.104;15.432;2022-12-18T03:46:00;7.93;;;5.07;;
16115;SDS011;8162;47.104;15.432;2022-12-18T03:48:33;8.53;;;5.03;;
16115;SDS011;8162;47.104;15.432;2022-12-18T03:51:14;9.63;;;5.70;;
16115;SDS011;8162;47.104;15.432;2022-12-18T03:53:52;8.87;;;5.17;;
16115;SDS011;8162;47.104;15.432;2022-12-18T03:56:22;9.97;;;5.20;;
16115;SDS011;8162;47.104;15.432;2022-12-18T03:58:52;9.03;;;5.80;;
16115;SDS011;8162;47.104;15.432;2022-12-18T04:01:20;6.90;;;4.53;;
16115;SDS011;8162;47.104;15.432;2022-12-18T04:03:48;8.57;;;4.97;;
16115;SDS011;8162;47.104;15.432;2022-12-18T04:06:15;5.53;;;3.90;;
16115;SDS011;8162;47.104;15.432;2022-12-18T04:08:42;7.00;;;4.87;;
16115;SDS011;8162;47.104;15.432;2022-12-18T04:11:08;6.63;;;4.90;;
16115;SDS011;8162;47.104;15.432;2022-12-18T04:13:36;7.13;;;5.17;;
16115;SDS011;8162;47.104;15.432;2022-12-18T04:16:02;8.67;;;5.20;;
16115;SDS011;8162;47.104;15.432;2022-12-18T04:18:28;7.87;;;5.23;;
16115;SDS011;8162;47.104;15.432;2022-12-18T04:20:54;7.07;;;5.10;;
16115;SDS011;8162;47.104;15.432;2022-12-18T04:23:20;8.20;;;5.30;;
16115;SDS011;8162;47.104;15.432;2022-12-18T04:25:46;7.83;;;5.57;;
16115;SDS011;8162;47.104;15.432;2022-12-18T04:28:12;8.70;;;5.27;;
16115;SDS011;8162;47.104;15.432;2022-12-18T04:30:38;8.23;;;5.37;;
16115;SDS011;8162;47.104;15.432;2022-12-18T04:33:07;7.00;;;4.57;;
16115;SDS011;8162;47.104;15.432;2022-12-18T04:35:36;8.93;;;5.50;;
16115;SDS011;8162;47.104;15.432;2022-12-18T04:38:02;6.17;;;4.90;;
16115;SDS011;8162;47.104;15.432;2022-12-18T04:40:28;7.67;;;5.23;;
16115;SDS011;8162;47.104;15.432;2022-12-18T04:42:53;6.10;;;4.50;;
16115;SDS011;8162;47.104;15.432;2022-12-18T04:45:19;11.03;;;5.27;;
16115;SDS011;8162;47.104;15.432;2022-12-18T04:47:45;11.03;;;5.60;;
16115;SDS011;8162;47.104;15.432;2022-12-18T04:50:10;9.20;;;5.37;;
16115;SDS011;8162;47.104;15.432;2022-12-18T04:52:36;7.67;;;4.97;;
16115;SDS011;8162;47.104;15.432;2022-12-18T04:55:02;8.00;;;5.10;;
16115;SDS011;8162;47.104;15.432;2022-12-18T04:57:28;9.73;;;5.53;;
16115;SDS011;8162;47.104;15.432;2022-12-18T04:59:53;6.33;;;5.07;;
16115;SDS011;8162;47.104;15.432;2022-12-18T05:02:19;8.87;;;5.47;;
16115;SDS011;8162;47.104;15.432;2022-12-18T05:04:45;7.17;;;4.73;;
16115;SDS011;8162;47.104;15.432;2022-12-18T05:07:10;8.60;;;4.90;;
16115;SDS011;8162;47.104;15.432;2022-12-18T05:09:36;8.33;;;4.73;;
16115;SDS011;8162;47.104;15.432;2022-12-18T05:12:02;6.10;;;4.73;;
16115;SDS011;8162;47.104;15.432;2022-12-18T05:14:27;5.37;;;4.53;;
16115;SDS011;8162;47.104;15.432;2022-12-18T05:16:54;7.17;;;4.53;;
16115;SDS011;8162;47.104;15.432;2022-12-18T05:19:20;8.20;;;5.30;;
16115;SDS011;8162;47.104;15.432;2022-12-18T05:21:46;7.07;;;5.13;;
16115;SDS011;8162;47.104;15.432;2022-12-18T05:24:11;8.27;;;5.03;;
16115;SDS011;8162;47.104;15.432;2022-12-18T05:26:37;9.50;;;5.03;;
16115;SDS011;8162;47.104;15.432;2022-12-18T05:29:03;7.17;;;4.90;;
16115;SDS011;8162;47.104;15.432;2022-12-18T05:31:28;6.17;;;4.73;;
16115;SDS011;8162;47.104;15.432;2022-12-18T05:33:54;6.67;;;5.70;;
16115;SDS011;8162;47.104;15.432;2022-12-18T05:36:20;8.47;;;5.67;;
16115;SDS011;8162;47.104;15.432;2022-12-18T05:38:45;6.90;;;4.53;;
16115;SDS011;8162;47.104;15.432;2022-12-18T05:41:11;8.67;;;5.23;;
16115;SDS011;8162;47.104;15.432;2022-12-18T05:43:37;7.63;;;5.10;;
16115;SDS011;8162;47.104;15.432;2022-12-18T05:46:09;6.73;;;4.60;;
16115;SDS011;8162;47.104;15.432;2022-12-18T05:48:38;7.27;;;5.03;;
16115;SDS011;8162;47.104;15.432;2022-12-18T05:51:08;5.70;;;4.53;;
16115;SDS011;8162;47.104;15.432;2022-12-18T05:53:35;10.37;;;7.63;;
16115;SDS011;8162;47.104;15.432;2022-12-18T05:56:05;14.33;;;10.33;;
16115;SDS011;8162;47.104;15.432;2022-12-18T05:58:33;14.40;;;10.93;;
16115;SDS011;8162;47.104;15.432;2022-12-18T06:01:05;7.70;;;5.77;;
16115;SDS011;8162;47.104;15.432;2022-12-18T06:03:39;8.73;;;5.33;;
16115;SDS011;8162;47.104;15.432;2022-12-18T06:06:12;7.50;;;5.37;;
16115;SDS011;8162;47.104;15.432;2022-12-18T06:08:39;8.67;;;5.73;;
16115;SDS011;8162;47.104;15.432;2022-12-18T06:11:05;7.30;;;5.27;;
16115;SDS011;8162;47.104;15.432;2022-12-18T06:13:31;9.37;;;6.37;;
16115;SDS011;8162;47.104;15.432;2022-12-18T06:15:57;10.30;;;7.60;;
16115;SDS011;8162;47.104;15.432;2022-12-18T06:18:23;9.97;;;6.33;;
16115;SDS011;8162;47.104;15.432;2022-12-18T06:20:58;12.30;;;6.87;;
16115;SDS011;8162;47.104;15.432;2022-12-18T06:23:24;9.60;;;6.07;;
16115;SDS011;8162;47.104;15.432;2022-12-18T06:25:50;8.53;;;5.60;;
16115;SDS011;8162;47.104;15.432;2022-12-18T06:28:16;9.57;;;6.40;;
16115;SDS011;8162;47.104;15.432;2022-12-18T06:30:46;8.03;;;5.83;;
16115;SDS011;8162;47.104;15.432;2022-12-18T06:33:13;7.53;;;5.60;;
16115;SDS011;8162;47.104;15.432;2022-12-18T06:35:39;12.13;;;7.30;;
16115;SDS011;8162;47.104;15.432;2022-12-18T06:38:05;11.40;;;7.23;;
16115;SDS011;8162;47.104;15.432;2022-12-18T06:40:31;10.57;;;6.77;;
16115;SDS011;8162;47.104;15.432;2022-12-18T06:42:57;7.53;;;5.57;;
16115;SDS011;8162;47.104;15.432;2022-12-18T06:45:22;9.10;;;6.27;;
16115;SDS011;8162;47.104;15.432;2022-12-18T06:47:49;7.93;;;5.63;;
16115;SDS011;8162;47.104;15.432;2022-12-18T06:50:15;7.57;;;6.20;;
16115;SDS011;8162;47.104;15.432;2022-12-18T06:52:41;7.63;;;5.80;;
16115;SDS011;8162;47.104;15.432;2022-12-18T06:55:08;10.43;;;6.90;;
16115;SDS011;8162;47.104;15.432;2022-12-18T06:57:35;10.50;;;7.07;;
16115;SDS011;8162;47.104;15.432;2022-12-18T07:00:02;8.57;;;5.77;;
16115;SDS011;8162;47.104;15.432;2022-12-18T07:02:30;9.03;;;6.43;;
16115;SDS011;8162;47.104;15.432;2022-12-18T07:04:55;9.00;;;6.43;;
16115;SDS011;8162;47.104;15.432;2022-12-18T07:07:21;8.13;;;6.17;;
16115;SDS011;8162;47.104;15.432;2022-12-18T07:09:47;9.07;;;5.73;;
16115;SDS011;8162;47.104;15.432;2022-12-18T07:12:14;9.67;;;6.27;;
16115;SDS011;8162;47.104;15.432;2022-12-18T07:14:40;8.77;;;6.60;;
16115;SDS011;8162;47.104;15.432;2022-12-18T07:17:05;8.33;;;5.77;;
16115;SDS011;8162;47.104;15.432;2022-12-18T07:19:31;9.43;;;6.57;;
16115;SDS011;8162;47.104;15.432;2022-12-18T07:21:56;11.00;;;6.63;;
16115;SDS011;8162;47.104;15.432;2022-12-18T07:24:22;13.30;;;7.20;;
16115;SDS011;8162;47.104;15.432;2022-12-18T07:26:48;9.97;;;5.70;;
16115;SDS011;8162;47.104;15.432;2022-12-18T07:29:13;8.80;;;6.10;;
16115;SDS011;8162;47.104;15.432;2022-12-18T07:31:39;11.37;;;6.70;;
16115;SDS011;8162;47.104;15.432;2022-12-18T07:34:05;11.70;;;7.57;;
16115;SDS011;8162;47.104;15.432;2022-12-18T07:36:30;9.47;;;7.10;;
16115;SDS011;8162;47.104;15.432;2022-12-18T07:38:56;11.67;;;7.23;;
16115;SDS011;8162;47.104;15.432;2022-12-18T07:41:21;10.80;;;7.40;;
16115;SDS011;8162;47.104;15.432;2022-12-18T07:43:47;14.03;;;7.63;;
16115;SDS011;8162;47.104;15.432;2022-12-18T07:46:14;10.50;;;7.87;;
16115;SDS011;8162;47.104;15.432;2022-12-18T07:48:43;12.27;;;7.97;;
16115;SDS011;8162;47.104;15.432;2022-12-18T07:51:10;10.07;;;7.40;;
16115;SDS011;8162;47.104;15.432;2022-12-18T07:53:35;11.60;;;7.60;;
16115;SDS011;8162;47.104;15.432;2022-12-18T07:56:03;9.23;;;6.33;;
16115;SDS011;8162;47.104;15.432;2022-12-18T07:58:31;9.07;;;6.47;;
16115;SDS011;8162;47.104;15.432;2022-12-18T08:01:07;8.53;;;5.97;;
16115;SDS011;8162;47.104;15.432;2022-12-18T08:03:35;9.27;;;6.10;;
16115;SDS011;8162;47.104;15.432;2022-12-18T08:06:03;10.10;;;5.77;;
16115;SDS011;8162;47.104;15.432;2022-12-18T08:08:31;8.73;;;5.87;;
16115;SDS011;8162;47.104;15.432;2022-12-18T08:10:58;8.17;;;6.20;;
16115;SDS011;8162;47.104;15.432;2022-12-18T08:13:24;9.27;;;6.60;;
16115;SDS011;8162;47.104;15.432;2022-12-18T08:16:01;10.17;;;7.00;;
16115;SDS011;8162;47.104;15.432;2022-12-18T08:18:28;9.17;;;6.07;;
16115;SDS011;8162;47.104;15.432;2022-12-18T08:20:54;8.27;;;6.37;;
16115;SDS011;8162;47.104;15.432;2022-12-18T08:23:20;9.53;;;6.70;;
16115;SDS011;8162;47.104;15.432;2022-12-18T08:25:46;8.97;;;6.40;;
16115;SDS011;8162;47.104;15.432;2022-12-18T08:28:12;7.80;;;5.67;;
16115;SDS011;8162;47.104;15.432;2022-12-18T08:30:38;10.33;;;6.90;;
16115;SDS011;8162;47.104;15.432;2022-12-18T08:33:04;9.77;;;6.83;;
16115;SDS011;8162;47.104;15.432;2022-12-18T08:35:30;9.63;;;7.03;;
16115;SDS011;8162;47.104;15.432;2022-12-18T08:37:59;11.13;;;7.73;;
16115;SDS011;8162;47.104;15.432;2022-12-18T08:40:25;14.47;;;7.70;;
16115;SDS011;8162;47.104;15.432;2022-12-18T08:42:50;10.87;;;6.83;;
16115;SDS011;8162;47.104;15.432;2022-12-18T08:45:34;13.20;;;6.67;;
16115;SDS011;8162;47.104;15.432;2022-12-18T08:48:00;9.37;;;6.70;;
16115;SDS011;8162;47.104;15.432;2022-12-18T08:50:25;10.00;;;7.07;;
16115;SDS011;8162;47.104;15.432;2022-12-18T08:52:51;12.40;;;7.63;;
16115;SDS011;8162;47.104;15.432;2022-12-18T08:55:17;10.50;;;7.40;;
16115;SDS011;8162;47.104;15.432;2022-12-18T08:57:42;9.77;;;6.83;;
16115;SDS011;8162;47.104;15.432;2022-12-18T09:00:08;9.43;;;7.13;;
16115;SDS011;8162;47.104;15.432;2022-12-18T09:02:34;12.43;;;7.80;;
16115;SDS011;8162;47.104;15.432;2022-12-18T09:05:00;10.87;;;7.43;;
16115;SDS011;8162;47.104;15.432;2022-12-18T09:07:26;13.53;;;8.47;;
16115;SDS011;8162;47.104;15.432;2022-12-18T09:09:51;9.27;;;7.27;;
16115;SDS011;8162;47.104;15.432;2022-12-18T09:12:17;12.40;;;8.27;;
16115;SDS011;8162;47.104;15.432;2022-12-18T09:14:42;12.77;;;7.87;;
16115;SDS011;8162;47.104;15.432;2022-12-18T09:17:08;11.63;;;7.40;;
16115;SDS011;8162;47.104;15.432;2022-12-18T09:19:34;11.33;;;7.40;;
16115;SDS011;8162;47.104;15.432;2022-12-18T09:21:59;11.20;;;7.93;;
16115;SDS011;8162;47.104;15.432;2022-12-18T09:24:25;10.93;;;7.70;;
16115;SDS011;8162;47.104;15.432;2022-12-18T09:26:54;11.93;;;8.37;;
16115;SDS011;8162;47.104;15.432;2022-12-18T09:29:20;12.20;;;8.43;;
16115;SDS011;8162;47.104;15.432;2022-12-18T09:31:46;12.20;;;7.83;;
16115;SDS011;8162;47.104;15.432;2022-12-18T09:34:12;13.80;;;7.93;;
16115;SDS011;8162;47.104;15.432;2022-12-18T09:36:38;13.53;;;8.67;;
16115;SDS011;8162;47.104;15.432;2022-12-18T09:39:04;14.20;;;8.57;;
16115;SDS011;8162;47.104;15.432;2022-12-18T09:49:42;12.60;;;8.87;;
16115;SDS011;8162;47.104;15.432;2022-12-18T09:52:15;13.67;;;8.13;;
16115;SDS011;8162;47.104;15.432;2022-12-18T09:54:53;13.53;;;8.83;;
16115;SDS011;8162;47.104;15.432;2022-12-18T09:57:23;13.50;;;9.10;;
16115;SDS011;8162;47.104;15.432;2022-12-18T09:59:55;10.83;;;7.83;;
16115;SDS011;8162;47.104;15.432;2022-12-18T10:02:26;13.33;;;8.63;;
16115;SDS011;8162;47.104;15.432;2022-12-18T10:08:02;11.43;;;8.07;;
16115;SDS011;8162;47.104;15.432;2022-12-18T10:10:42;12.57;;;8.70;;
16115;SDS011;8162;47.104;15.432;2022-12-18T10:13:31;12.40;;;8.07;;
16115;SDS011;8162;47.104;15.432;2022-12-18T10:21:23;17.77;;;11.77;;
16115;SDS011;8162;47.104;15.432;2022-12-18T10:26:24;16.67;;;11.43;;
16115;SDS011;8162;47.104;15.432;2022-12-18T10:28:50;17.27;;;11.13;;
16115;SDS011;8162;47.104;15.432;2022-12-18T10:31:22;16.77;;;12.33;;
16115;SDS011;8162;47.104;15.432;2022-12-18T10:33:49;19.93;;;13.73;;
16115;SDS011;8162;47.104;15.432;2022-12-18T10:36:14;23.70;;;14.93;;
16115;SDS011;8162;47.104;15.432;2022-12-18T10:38:40;22.33;;;15.83;;
16115;SDS011;8162;47.104;15.432;2022-12-18T10:41:22;26.37;;;17.03;;
16115;SDS011;8162;47.104;15.432;2022-12-18T10:46:37;24.57;;;16.23;;
16115;SDS011;8162;47.104;15.432;2022-12-18T10:49:03;25.13;;;17.33;;
16115;SDS011;8162;47.104;15.432;2022-12-18T10:54:02;21.77;;;15.23;;
16115;SDS011;8162;47.104;15.432;2022-12-18T10:56:30;28.17;;;16.83;;
16115;SDS011;8162;47.104;15.432;2022-12-18T10:59:01;23.83;;;15.47;;
16115;SDS011;8162;47.104;15.432;2022-12-18T11:01:31;23.13;;;16.33;;
16115;SDS011;8162;47.104;15.432;2022-12-18T11:04:33;22.83;;;14.93;;
16115;SDS011;8162;47.104;15.432;2022-12-18T11:07:07;23.23;;;14.53;;
16115;SDS011;8162;47.104;15.432;2022-12-18T11:09:34;27.93;;;15.80;;
16115;SDS011;8162;47.104;15.432;2022-12-18T11:12:02;24.57;;;15.00;;
16115;SDS011;8162;47.104;15.432;2022-12-18T11:14:42;24.00;;;16.37;;
16115;SDS011;8162;47.104;15.432;2022-12-18T11:17:44;28.03;;;17.87;;
16115;SDS011;8162;47.104;15.432;2022-12-18T11:20:05;24.83;;;15.93;;
16115;SDS011;8162;47.104;15.432;2022-12-18T11:22:44;27.60;;;16.13;;
16115;SDS011;8162;47.104;15.432;2022-12-18T11:25:27;25.97;;;16.83;;
16115;SDS011;8162;47.104;15.432;2022-12-18T11:28:00;30.23;;;19.17;;
16115;SDS011;8162;47.104;15.432;2022-12-18T11:30:32;28.63;;;16.10;;
16115;SDS011;8162;47.104;15.432;2022-12-18T11:35:42;25.23;;;16.43;;
16115;SDS011;8162;47.104;15.432;2022-12-18T11:38:26;27.33;;;17.60;;
16115;SDS011;8162;47.104;15.432;2022-12-18T11:40:56;25.00;;;17.10;;
16115;SDS011;8162;47.104;15.432;2022-12-18T11:43:59;33.27;;;19.07;;
16115;SDS011;8162;47.104;15.432;2022-12-18T11:46:38;25.63;;;17.60;;
16115;SDS011;8162;47.104;15.432;2022-12-18T11:49:14;29.23;;;18.90;;
16115;SDS011;8162;47.104;15.432;2022-12-18T11:54:23;29.33;;;18.70;;
16115;SDS011;8162;47.104;15.432;2022-12-18T11:57:00;28.40;;;18.53;;
16115;SDS011;8162;47.104;15.432;2022-12-18T12:00:04;30.47;;;18.73;;
16115;SDS011;8162;47.104;15.432;2022-12-18T12:03:00;27.80;;;16.63;;
16115;SDS011;8162;47.104;15.432;2022-12-18T12:05:37;24.50;;;16.13;;
16115;SDS011;8162;47.104;15.432;2022-12-18T12:08:32;31.77;;;19.50;;
16115;SDS011;8162;47.104;15.432;2022-12-18T12:16:16;33.27;;;18.80;;
16115;SDS011;8162;47.104;15.432;2022-12-18T12:21:41;27.90;;;18.27;;
16115;SDS011;8162;47.104;15.432;2022-12-18T12:32:19;25.37;;;16.80;;
16115;SDS011;8162;47.104;15.432;2022-12-18T12:38:16;26.23;;;18.03;;
16115;SDS011;8162;47.104;15.432;2022-12-18T12:40:54;29.37;;;17.73;;
16115;SDS011;8162;47.104;15.432;2022-12-18T12:46:10;27.10;;;18.87;;
16115;SDS011;8162;47.104;15.432;2022-12-18T12:48:55;28.13;;;18.73;;
16115;SDS011;8162;47.104;15.432;2022-12-18T12:51:24;28.17;;;17.83;;
16115;SDS011;8162;47.104;15.432;2022-12-18T12:53:56;30.87;;;18.87;;
16115;SDS011;8162;47.104;15.432;2022-12-18T12:56:24;31.27;;;20.27;;
16115;SDS011;8162;47.104;15.432;2022-12-18T12:59:12;31.33;;;19.03;;
16115;SDS011;8162;47.104;15.432;2022-12-18T13:04:35;32.40;;;20.13;;
16115;SDS011;8162;47.104;15.432;2022-12-18T13:18:10;31.33;;;18.67;;
16115;SDS011;8162;47.104;15.432;2022-12-18T13:20:43;32.03;;;18.37;;
16115;SDS011;8162;47.104;15.432;2022-12-18T13:34:25;37.10;;;21.13;;
16115;SDS011;8162;47.104;15.432;2022-12-18T13:36:55;34.20;;;21.23;;
16115;SDS011;8162;47.104;15.432;2022-12-18T13:39:41;35.90;;;22.07;;
16115;SDS011;8162;47.104;15.432;2022-12-18T13:44:36;37.20;;;21.93;;
16115;SDS011;8162;47.104;15.432;2022-12-18T13:47:25;36.57;;;20.70;;
16115;SDS011;8162;47.104;15.432;2022-12-18T13:49:58;39.57;;;22.10;;
16115;SDS011;8162;47.104;15.432;2022-12-18T13:52:25;37.23;;;22.47;;
16115;SDS011;8162;47.104;15.432;2022-12-18T13:54:54;38.27;;;21.57;;
16115;SDS011;8162;47.104;15.432;2022-12-18T13:57:33;36.50;;;21.07;;
16115;SDS011;8162;47.104;15.432;2022-12-18T14:02:47;36.77;;;21.87;;
16115;SDS011;8162;47.104;15.432;2022-12-18T14:05:27;39.60;;;22.33;;
16115;SDS011;8162;47.104;15.432;2022-12-18T14:07:55;34.87;;;20.53;;
16115;SDS011;8162;47.104;15.432;2022-12-18T14:10:26;35.13;;;20.90;;
16115;SDS011;8162;47.104;15.432;2022-12-18T14:12:52;34.93;;;20.90;;
16115;SDS011;8162;47.104;15.432;2022-12-18T14:17:47;32.93;;;20.60;;
16115;SDS011;8162;47.104;15.432;2022-12-18T14:20:14;34.83;;;21.07;;
16115;SDS011;8162;47.104;15.432;2022-12-18T14:22:45;35.80;;;20.77;;
16115;SDS011;8162;47.104;15.432;2022-12-18T14:27:41;38.53;;;21.73;;
16115;SDS011;8162;47.104;15.432;2022-12-18T14:35:31;36.20;;;19.80;;
16115;SDS011;8162;47.104;15.432;2022-12-18T14:40:43;33.70;;;20.97;;
16115;SDS011;8162;47.104;15.432;2022-12-18T14:43:12;37.93;;;21.57;;
16115;SDS011;8162;47.104;15.432;2022-12-18T14:45:42;41.03;;;20.13;;
16115;SDS011;8162;47.104;15.432;2022-12-18T14:50:44;37.60;;;19.87;;
16115;SDS011;8162;47.104;15.432;2022-12-18T14:53:19;27.30;;;17.40;;
16115;SDS011;8162;47.104;15.432;2022-12-18T14:55:48;38.30;;;21.27;;
16115;SDS011;8162;47.104;15.432;2022-12-18T14:58:15;37.43;;;20.13;;
16115;SDS011;8162;47.104;15.432;2022-12-18T15:00:42;35.63;;;18.80;;
16115;SDS011;8162;47.104;15.432;2022-12-18T15:03:08;38.20;;;20.40;;
16115;SDS011;8162;47.104;15.432;2022-12-18T15:05:35;34.33;;;20.93;;
16115;SDS011;8162;47.104;15.432;2022-12-18T15:08:01;33.43;;;19.07;;
16115;SDS011;8162;47.104;15.432;2022-12-18T15:18:11;31.50;;;18.37;;
16115;SDS011;8162;47.104;15.432;2022-12-18T15:26:03;35.30;;;19.93;;
16115;SDS011;8162;47.104;15.432;2022-12-18T15:28:35;37.90;;;19.40;;
16115;SDS011;8162;47.104;15.432;2022-12-18T15:31:05;36.93;;;20.20;;
16115;SDS011;8162;47.104;15.432;2022-12-18T15:36:18;36.40;;;20.77;;
16115;SDS011;8162;47.104;15.432;2022-12-18T15:38:46;36.47;;;21.07;;
16115;SDS011;8162;47.104;15.432;2022-12-18T15:41:13;45.37;;;22.67;;
16115;SDS011;8162;47.104;15.432;2022-12-18T15:43:40;36.23;;;20.67;;
16115;SDS011;8162;47.104;15.432;2022-12-18T15:46:18;34.63;;;18.30;;
16115;SDS011;8162;47.104;15.432;2022-12-18T15:48:50;32.53;;;18.67;;
16115;SDS011;8162;47.104;15.432;2022-12-18T15:51:18;36.60;;;20.97;;
16115;SDS011;8162;47.104;15.432;2022-12-18T15:53:50;34.27;;;18.83;;
16115;SDS011;8162;47.104;15.432;2022-12-18T15:56:19;35.13;;;18.73;;
16115;SDS011;8162;47.104;15.432;2022-12-18T15:59:08;30.17;;;16.53;;
16115;SDS011;8162;47.104;15.432;2022-12-18T16:01:37;31.47;;;18.70;;
16115;SDS011;8162;47.104;15.432;2022-12-18T16:04:03;32.17;;;18.50;;
16115;SDS011;8162;47.104;15.432;2022-12-18T16:06:29;32.13;;;17.70;;
16115;SDS011;8162;47.104;15.432;2022-12-18T16:08:55;34.00;;;19.60;;
16115;SDS011;8162;47.104;15.432;2022-12-18T16:11:22;30.80;;;18.47;;
16115;SDS011;8162;47.104;15.432;2022-12-18T16:14:21;35.37;;;17.33;;
16115;SDS011;8162;47.104;15.432;2022-12-18T16:16:52;37.03;;;18.60;;
16115;SDS011;8162;47.104;15.432;2022-12-18T16:19:19;37.97;;;20.27;;
16115;SDS011;8162;47.104;15.432;2022-12-18T16:21:46;32.63;;;18.67;;
16115;SDS011;8162;47.104;15.432;2022-12-18T16:24:20;28.23;;;16.70;;
16115;SDS011;8162;47.104;15.432;2022-12-18T16:26:49;37.30;;;20.60;;
16115;SDS011;8162;47.104;15.432;2022-12-18T16:29:18;38.13;;;19.40;;
16115;SDS011;8162;47.104;15.432;2022-12-18T16:31:50;31.60;;;18.90;;
16115;SDS011;8162;47.104;15.432;2022-12-18T16:37:12;29.47;;;16.50;;
16115;SDS011;8162;47.104;15.432;2022-12-18T16:39:39;37.23;;;20.33;;
16115;SDS011;8162;47.104;15.432;2022-12-18T16:42:09;32.13;;;18.77;;
16115;SDS011;8162;47.104;15.432;2022-12-18T16:44:37;33.50;;;17.07;;
16115;SDS011;8162;47.104;15.432;2022-12-18T16:47:03;36.43;;;19.50;;
16115;SDS011;8162;47.104;15.432;2022-12-18T16:49:30;33.80;;;18.40;;
16115;SDS011;8162;47.104;15.432;2022-12-18T16:51:57;39.80;;;19.03;;
16115;SDS011;8162;47.104;15.432;2022-12-18T16:54:23;31.43;;;17.60;;
16115;SDS011;8162;47.104;15.432;2022-12-18T16:56:50;34.30;;;18.67;;
16115;SDS011;8162;47.104;15.432;2022-12-18T16:59:19;33.73;;;18.03;;
16115;SDS011;8162;47.104;15.432;2022-12-18T17:01:45;38.97;;;20.63;;
16115;SDS011;8162;47.104;15.432;2022-12-18T17:04:11;31.30;;;17.63;;
16115;SDS011;8162;47.104;15.432;2022-12-18T17:06:41;30.40;;;18.63;;
16115;SDS011;8162;47.104;15.432;2022-12-18T17:09:12;29.20;;;17.17;;
16115;SDS011;8162;47.104;15.432;2022-12-18T17:11:40;29.77;;;16.60;;